sensor_id;sensor_type;location;lat;lon;timestamp;temperature;humidity
19363;DHT22;9817;50.80926400;5.16316200;2023-08-21T00:00:45;21.60;99.90
19363;DHT22;9817;50.80926400;5.16316200;2023-08-21T00:03:11;21.50;99.90
19363;DHT22;9817;50.80926400;5.16316200;2023-08-21T00:05:36;21.50;99.90
19363;DHT22;9817;50.80926400;5.16316200;2023-08-21T00:08:02;21.50;99.90
19363;DHT22;9817;50.80926400;5.16316200;2023-08-21T00:10:29;21.60;99.90
19363;DHT22;9817;50.80926400;5.16316200;2023-08-21T00:12:55;21.50;99.90
19363;DHT22;9817;50.80926400;5.16316200;2023-08-21T00:15:21;21.60;99.90
19363;DHT22;9817;50.80926400;5.16316200;2023-08-21T00:17:47;21.60;99.90
19363;DHT22;9817;50.80926400;5.16316200;2023-08-21T00:20:13;21.60;99.90
19363;DHT22;9817;50.80926400;5.16316200;2023-08-21T00:22:38;21.50;99.90
19363;DHT22;9817;50.80926400;5.16316200;2023-08-21T00:25:04;21.50;99.90
19363;DHT22;9817;50.80926400;5.16316200;2023-08-21T00:27:30;21.40;99.90
19363;DHT22;9817;50.80926400;5.16316200;2023-08-21T00:29:55;21.40;99.90
19363;DHT22;9817;50.80926400;5.16316200;2023-08-21T00:32:21;21.40;99.90
19363;DHT22;9817;50.80926400;5.16316200;2023-08-21T00:34:47;21.30;99.90
19363;DHT22;9817;50.80926400;5.16316200;2023-08-21T00:37:12;21.30;99.90
19363;DHT22;9817;50.80926400;5.16316200;2023-08-21T00:39:38;21.30;99.90
19363;DHT22;9817;50.80926400;5.16316200;2023-08-21T00:42:04;21.20;99.90
19363;DHT22;9817;50.80926400;5.16316200;2023-08-21T00:44:30;21.20;99.90
19363;DHT22;9817;50.80926400;5.16316200;2023-08-21T00:46:56;21.20;99.90
19363;DHT22;9817;50.80926400;5.16316200;2023-08-21T00:49:21;21.20;99.90
19363;DHT22;9817;50.80926400;5.16316200;2023-08-21T00:51:48;21.20;99.90
19363;DHT22;9817;50.80926400;5.16316200;2023-08-21T00:54:15;21.20;99.90
19363;DHT22;9817;50.80926400;5.16316200;2023-08-21T00:56:41;21.20;99.90
19363;DHT22;9817;50.80926400;5.16316200;2023-08-21T00:59:06;21.20;99.90
19363;DHT22;9817;50.80926400;5.16316200;2023-08-21T01:01:33;21.20;99.90
19363;DHT22;9817;50.80926400;5.16316200;2023-08-21T01:03:59;21.10;99.90
19363;DHT22;9817;50.80926400;5.16316200;2023-08-21T01:06:25;21.20;99.90
19363;DHT22;9817;50.80926400;5.16316200;2023-08-21T01:09:00;21.10;99.90
19363;DHT22;9817;50.80926400;5.16316200;2023-08-21T01:16:28;21.10;99.90
19363;DHT22;9817;50.80926400;5.16316200;2023-08-21T01:18:55;21.10;99.90
19363;DHT22;9817;50.80926400;5.16316200;2023-08-21T01:21:22;21.00;99.90
19363;DHT22;9817;50.80926400;5.16316200;2023-08-21T01:23:49;21.00;99.90
19363;DHT22;9817;50.80926400;5.16316200;2023-08-21T01:26:14;21.00;99.90
19363;DHT22;9817;50.80926400;5.16316200;2023-08-21T01:28:40;21.00;99.90
19363;DHT22;9817;50.80926400;5.16316200;2023-08-21T01:31:21;21.10;99.90
19363;DHT22;9817;50.80926400;5.16316200;2023-08-21T01:33:50;21.10;99.90
19363;DHT22;9817;50.80926400;5.16316200;2023-08-21T01:36:17;21.10;99.90
19363;DHT22;9817;50.80926400;5.16316200;2023-08-21T01:38:43;21.10;99.90
19363;DHT22;9817;50.80926400;5.16316200;2023-08-21T01:41:09;21.10;99.90
19363;DHT22;9817;50.80926400;5.16316200;2023-08-21T01:43:35;21.10;99.90
19363;DHT22;9817;50.80926400;5.16316200;2023-08-21T01:46:01;21.10;99.90
19363;DHT22;9817;50.80926400;5.16316200;2023-08-21T01:48:28;21.10;99.90
19363;DHT22;9817;50.80926400;5.16316200;2023-08-21T01:50:53;21.00;99.90
19363;DHT22;9817;50.80926400;5.16316200;2023-08-21T01:53:19;21.00;99.90
19363;DHT22;9817;50.80926400;5.16316200;2023-08-21T01:55:45;21.00;99.90
19363;DHT22;9817;50.80926400;5.16316200;2023-08-21T01:58:10;21.00;99.90
19363;DHT22;9817;50.80926400;5.16316200;2023-08-21T02:00:36;20.80;99.90
19363;DHT22;9817;50.80926400;5.16316200;2023-08-21T02:03:02;20.70;99.90
19363;DHT22;9817;50.80926400;5.16316200;2023-08-21T02:05:27;20.60;99.90
19363;DHT22;9817;50.80926400;5.16316200;2023-08-21T02:07:53;20.60;99.90
19363;DHT22;9817;50.80926400;5.16316200;2023-08-21T02:10:18;20.60;99.90
19363;DHT22;9817;50.80926400;5.16316200;2023-08-21T02:12:44;20.60;99.90
19363;DHT22;9817;50.80926400;5.16316200;2023-08-21T02:15:10;20.40;99.90
19363;DHT22;9817;50.80926400;5.16316200;2023-08-21T02:17:35;20.30;99.90
19363;DHT22;9817;50.80926400;5.16316200;2023-08-21T02:20:01;20.20;99.90
19363;DHT22;9817;50.80926400;5.16316200;2023-08-21T02:22:27;20.20;99.90
19363;DHT22;9817;50.80926400;5.16316200;2023-08-21T02:24:53;20.30;99.90
19363;DHT22;9817;50.80926400;5.16316200;2023-08-21T02:27:18;20.20;99.90
19363;DHT22;9817;50.80926400;5.16316200;2023-08-21T02:29:44;20.10;99.90
19363;DHT22;9817;50.80926400;5.16316200;2023-08-21T02:32:10;20.10;99.90
19363;DHT22;9817;50.80926400;5.16316200;2023-08-21T02:34:36;20.10;99.90
19363;DHT22;9817;50.80926400;5.16316200;2023-08-21T02:37:01;20.10;99.90
19363;DHT22;9817;50.80926400;5.16316200;2023-08-21T02:39:28;20.10;99.90
19363;DHT22;9817;50.80926400;5.16316200;2023-08-21T02:41:54;20.00;99.90
19363;DHT22;9817;50.80926400;5.16316200;2023-08-21T02:44:19;20.00;99.90
19363;DHT22;9817;50.80926400;5.16316200;2023-08-21T02:46:45;20.00;99.90
19363;DHT22;9817;50.80926400;5.16316200;2023-08-21T02:49:10;20.00;99.90
19363;DHT22;9817;50.80926400;5.16316200;2023-08-21T02:51:36;20.00;99.90
19363;DHT22;9817;50.80926400;5.16316200;2023-08-21T02:54:02;19.90;99.90
19363;DHT22;9817;50.80926400;5.16316200;2023-08-21T02:56:28;19.90;99.90
19363;DHT22;9817;50.80926400;5.16316200;2023-08-21T02:58:53;19.80;99.90
19363;DHT22;9817;50.80926400;5.16316200;2023-08-21T03:01:19;19.70;99.90
19363;DHT22;9817;50.80926400;5.16316200;2023-08-21T03:03:44;19.60;99.90
19363;DHT22;9817;50.80926400;5.16316200;2023-08-21T03:06:10;19.60;99.90
19363;DHT22;9817;50.80926400;5.16316200;2023-08-21T03:08:36;19.60;99.90
19363;DHT22;9817;50.80926400;5.16316200;2023-08-21T03:11:01;19.70;99.90
19363;DHT22;9817;50.80926400;5.16316200;2023-08-21T03:13:27;19.70;99.90
19363;DHT22;9817;50.80926400;5.16316200;2023-08-21T03:15:53;19.70;99.90
19363;DHT22;9817;50.80926400;5.16316200;2023-08-21T03:18:18;19.60;99.90
19363;DHT22;9817;50.80926400;5.16316200;2023-08-21T03:20:45;19.60;99.90
19363;DHT22;9817;50.80926400;5.16316200;2023-08-21T03:23:12;19.80;99.90
19363;DHT22;9817;50.80926400;5.16316200;2023-08-21T03:25:37;19.80;99.90
19363;DHT22;9817;50.80926400;5.16316200;2023-08-21T03:28:03;19.70;99.90
19363;DHT22;9817;50.80926400;5.16316200;2023-08-21T03:30:29;19.70;99.90
19363;DHT22;9817;50.80926400;5.16316200;2023-08-21T03:32:54;19.70;99.90
19363;DHT22;9817;50.80926400;5.16316200;2023-08-21T03:35:20;19.70;99.90
19363;DHT22;9817;50.80926400;5.16316200;2023-08-21T03:37:46;19.60;99.90
19363;DHT22;9817;50.80926400;5.16316200;2023-08-21T03:40:11;19.60;99.90
19363;DHT22;9817;50.80926400;5.16316200;2023-08-21T03:42:37;19.40;99.90
19363;DHT22;9817;50.80926400;5.16316200;2023-08-21T03:45:03;19.50;99.90
19363;DHT22;9817;50.80926400;5.16316200;2023-08-21T03:47:30;19.50;99.90
19363;DHT22;9817;50.80926400;5.16316200;2023-08-21T03:49:56;19.50;99.90
19363;DHT22;9817;50.80926400;5.16316200;2023-08-21T03:52:21;19.50;99.90
19363;DHT22;9817;50.80926400;5.16316200;2023-08-21T03:54:47;19.40;99.90
19363;DHT22;9817;50.80926400;5.16316200;2023-08-21T03:57:13;19.40;99.90
19363;DHT22;9817;50.80926400;5.16316200;2023-08-21T03:59:38;19.40;99.90
19363;DHT22;9817;50.80926400;5.16316200;2023-08-21T04:02:04;19.40;99.90
19363;DHT22;9817;50.80926400;5.16316200;2023-08-21T04:04:29;19.50;99.90
19363;DHT22;9817;50.80926400;5.16316200;2023-08-21T04:06:55;19.50;99.90
19363;DHT22;9817;50.80926400;5.16316200;2023-08-21T04:09:21;19.40;99.90
19363;DHT22;9817;50.80926400;5.16316200;2023-08-21T04:11:46;19.40;99.90
19363;DHT22;9817;50.80926400;5.16316200;2023-08-21T04:14:12;19.40;99.90
19363;DHT22;9817;50.80926400;5.16316200;2023-08-21T04:16:38;19.40;99.90
19363;DHT22;9817;50.80926400;5.16316200;2023-08-21T04:19:05;19.30;99.90
19363;DHT22;9817;50.80926400;5.16316200;2023-08-21T04:21:30;19.40;99.90
19363;DHT22;9817;50.80926400;5.16316200;2023-08-21T04:23:56;19.40;99.90
19363;DHT22;9817;50.80926400;5.16316200;2023-08-21T04:26:21;19.40;99.90
19363;DHT22;9817;50.80926400;5.16316200;2023-08-21T04:28:47;19.30;99.90
19363;DHT22;9817;50.80926400;5.16316200;2023-08-21T04:31:13;19.20;99.90
19363;DHT22;9817;50.80926400;5.16316200;2023-08-21T04:33:39;19.10;99.90
19363;DHT22;9817;50.80926400;5.16316200;2023-08-21T04:36:05;19.10;99.90
19363;DHT22;9817;50.80926400;5.16316200;2023-08-21T04:38:30;19.10;99.90
19363;DHT22;9817;50.80926400;5.16316200;2023-08-21T04:40:56;19.10;99.90
19363;DHT22;9817;50.80926400;5.16316200;2023-08-21T04:43:22;19.00;99.90
19363;DHT22;9817;50.80926400;5.16316200;2023-08-21T04:45:51;19.00;99.90
19363;DHT22;9817;50.80926400;5.16316200;2023-08-21T04:48:20;19.00;99.90
19363;DHT22;9817;50.80926400;5.16316200;2023-08-21T04:50:46;19.10;99.90
19363;DHT22;9817;50.80926400;5.16316200;2023-08-21T04:53:12;19.10;99.90
19363;DHT22;9817;50.80926400;5.16316200;2023-08-21T04:55:39;19.20;99.90
19363;DHT22;9817;50.80926400;5.16316200;2023-08-21T04:58:06;19.30;99.90
19363;DHT22;9817;50.80926400;5.16316200;2023-08-21T05:00:32;19.20;99.90
19363;DHT22;9817;50.80926400;5.16316200;2023-08-21T05:02:58;19.20;99.90
19363;DHT22;9817;50.80926400;5.16316200;2023-08-21T05:05:23;19.10;99.90
19363;DHT22;9817;50.80926400;5.16316200;2023-08-21T05:07:49;19.10;99.90
19363;DHT22;9817;50.80926400;5.16316200;2023-08-21T05:10:15;19.10;99.90
19363;DHT22;9817;50.80926400;5.16316200;2023-08-21T05:12:41;19.20;99.90
19363;DHT22;9817;50.80926400;5.16316200;2023-08-21T05:15:07;19.10;99.90
19363;DHT22;9817;50.80926400;5.16316200;2023-08-21T05:17:32;18.90;99.90
19363;DHT22;9817;50.80926400;5.16316200;2023-08-21T05:19:58;18.90;99.90
19363;DHT22;9817;50.80926400;5.16316200;2023-08-21T05:22:24;18.90;99.90
19363;DHT22;9817;50.80926400;5.16316200;2023-08-21T05:24:49;19.00;99.90
19363;DHT22;9817;50.80926400;5.16316200;2023-08-21T05:27:15;19.00;99.90
19363;DHT22;9817;50.80926400;5.16316200;2023-08-21T05:29:40;19.10;99.90
19363;DHT22;9817;50.80926400;5.16316200;2023-08-21T05:32:06;19.20;99.90
19363;DHT22;9817;50.80926400;5.16316200;2023-08-21T05:34:32;19.30;99.90
19363;DHT22;9817;50.80926400;5.16316200;2023-08-21T05:36:58;19.40;99.90
19363;DHT22;9817;50.80926400;5.16316200;2023-08-21T05:39:23;19.40;99.90
19363;DHT22;9817;50.80926400;5.16316200;2023-08-21T05:41:49;19.40;99.90
19363;DHT22;9817;50.80926400;5.16316200;2023-08-21T05:44:15;19.50;99.90
19363;DHT22;9817;50.80926400;5.16316200;2023-08-21T05:46:40;19.70;99.90
19363;DHT22;9817;50.80926400;5.16316200;2023-08-21T05:49:06;19.80;99.90
19363;DHT22;9817;50.80926400;5.16316200;2023-08-21T05:51:32;20.00;99.90
19363;DHT22;9817;50.80926400;5.16316200;2023-08-21T05:53:57;20.10;99.90
19363;DHT22;9817;50.80926400;5.16316200;2023-08-21T05:56:23;20.20;99.90
19363;DHT22;9817;50.80926400;5.16316200;2023-08-21T05:58:49;20.40;99.90
19363;DHT22;9817;50.80926400;5.16316200;2023-08-21T06:01:14;20.40;99.90
19363;DHT22;9817;50.80926400;5.16316200;2023-08-21T06:03:40;20.40;99.90
19363;DHT22;9817;50.80926400;5.16316200;2023-08-21T06:06:06;20.30;99.90
19363;DHT22;9817;50.80926400;5.16316200;2023-08-21T06:08:31;20.30;99.90
19363;DHT22;9817;50.80926400;5.16316200;2023-08-21T06:10:57;20.40;99.90
19363;DHT22;9817;50.80926400;5.16316200;2023-08-21T06:13:23;20.40;99.90
19363;DHT22;9817;50.80926400;5.16316200;2023-08-21T06:15:49;20.40;99.90
19363;DHT22;9817;50.80926400;5.16316200;2023-08-21T06:18:14;20.40;99.90
19363;DHT22;9817;50.80926400;5.16316200;2023-08-21T06:20:43;20.40;99.90
19363;DHT22;9817;50.80926400;5.16316200;2023-08-21T06:23:10;20.40;99.90
19363;DHT22;9817;50.80926400;5.16316200;2023-08-21T06:25:36;20.40;99.90
19363;DHT22;9817;50.80926400;5.16316200;2023-08-21T06:28:01;20.40;99.90
19363;DHT22;9817;50.80926400;5.16316200;2023-08-21T06:30:27;20.40;99.90
19363;DHT22;9817;50.80926400;5.16316200;2023-08-21T06:32:53;20.50;99.90
19363;DHT22;9817;50.80926400;5.16316200;2023-08-21T06:35:19;20.50;99.90
19363;DHT22;9817;50.80926400;5.16316200;2023-08-21T06:37:45;20.60;99.90
19363;DHT22;9817;50.80926400;5.16316200;2023-08-21T06:40:11;20.60;99.90
19363;DHT22;9817;50.80926400;5.16316200;2023-08-21T06:42:36;20.60;99.90
19363;DHT22;9817;50.80926400;5.16316200;2023-08-21T06:45:04;20.70;99.90
19363;DHT22;9817;50.80926400;5.16316200;2023-08-21T06:47:30;20.80;99.90
19363;DHT22;9817;50.80926400;5.16316200;2023-08-21T06:49:55;20.80;99.90
19363;DHT22;9817;50.80926400;5.16316200;2023-08-21T06:52:21;20.80;99.90
19363;DHT22;9817;50.80926400;5.16316200;2023-08-21T06:54:47;20.90;99.90
19363;DHT22;9817;50.80926400;5.16316200;2023-08-21T06:57:13;21.10;99.90
19363;DHT22;9817;50.80926400;5.16316200;2023-08-21T06:59:38;21.10;99.90
19363;DHT22;9817;50.80926400;5.16316200;2023-08-21T07:02:04;21.20;99.90
19363;DHT22;9817;50.80926400;5.16316200;2023-08-21T07:04:30;21.30;99.90
19363;DHT22;9817;50.80926400;5.16316200;2023-08-21T07:06:58;21.40;99.90
19363;DHT22;9817;50.80926400;5.16316200;2023-08-21T07:09:23;21.40;99.90
19363;DHT22;9817;50.80926400;5.16316200;2023-08-21T07:11:49;21.40;99.90
19363;DHT22;9817;50.80926400;5.16316200;2023-08-21T07:14:15;21.40;99.90
19363;DHT22;9817;50.80926400;5.16316200;2023-08-21T07:16:42;21.40;99.90
19363;DHT22;9817;50.80926400;5.16316200;2023-08-21T07:19:08;21.50;99.90
19363;DHT22;9817;50.80926400;5.16316200;2023-08-21T07:21:34;21.70;99.90
19363;DHT22;9817;50.80926400;5.16316200;2023-08-21T07:24:02;21.80;99.90
19363;DHT22;9817;50.80926400;5.16316200;2023-08-21T07:26:28;21.80;99.90
19363;DHT22;9817;50.80926400;5.16316200;2023-08-21T07:28:54;21.80;99.90
19363;DHT22;9817;50.80926400;5.16316200;2023-08-21T07:31:20;21.80;99.90
19363;DHT22;9817;50.80926400;5.16316200;2023-08-21T07:33:46;21.90;99.90
19363;DHT22;9817;50.80926400;5.16316200;2023-08-21T07:36:11;22.00;99.90
19363;DHT22;9817;50.80926400;5.16316200;2023-08-21T07:38:43;22.10;99.90
19363;DHT22;9817;50.80926400;5.16316200;2023-08-21T07:41:10;22.10;99.90
19363;DHT22;9817;50.80926400;5.16316200;2023-08-21T07:43:40;22.10;99.90
19363;DHT22;9817;50.80926400;5.16316200;2023-08-21T07:46:07;22.20;99.90
19363;DHT22;9817;50.80926400;5.16316200;2023-08-21T07:48:33;22.30;99.90
19363;DHT22;9817;50.80926400;5.16316200;2023-08-21T07:50:59;22.40;99.90
19363;DHT22;9817;50.80926400;5.16316200;2023-08-21T07:53:25;22.50;99.90
19363;DHT22;9817;50.80926400;5.16316200;2023-08-21T07:55:51;22.50;99.90
19363;DHT22;9817;50.80926400;5.16316200;2023-08-21T07:58:18;22.60;99.90
19363;DHT22;9817;50.80926400;5.16316200;2023-08-21T08:00:44;22.70;99.90
19363;DHT22;9817;50.80926400;5.16316200;2023-08-21T08:03:10;23.10;99.90
19363;DHT22;9817;50.80926400;5.16316200;2023-08-21T08:05:36;25.00;99.90
19363;DHT22;9817;50.80926400;5.16316200;2023-08-21T08:08:02;28.20;99.90
19363;DHT22;9817;50.80926400;5.16316200;2023-08-21T08:10:28;31.50;99.90
19363;DHT22;9817;50.80926400;5.16316200;2023-08-21T08:12:54;34.20;99.90
19363;DHT22;9817;50.80926400;5.16316200;2023-08-21T08:15:21;36.60;99.90
19363;DHT22;9817;50.80926400;5.16316200;2023-08-21T08:17:47;38.30;96.90
19363;DHT22;9817;50.80926400;5.16316200;2023-08-21T08:20:13;39.30;92.00
19363;DHT22;9817;50.80926400;5.16316200;2023-08-21T08:22:39;40.00;90.10
19363;DHT22;9817;50.80926400;5.16316200;2023-08-21T08:25:06;40.70;84.70
19363;DHT22;9817;50.80926400;5.16316200;2023-08-21T08:27:32;41.60;80.10
19363;DHT22;9817;50.80926400;5.16316200;2023-08-21T08:29:58;42.30;76.00
19363;DHT22;9817;50.80926400;5.16316200;2023-08-21T08:32:24;42.90;73.10
19363;DHT22;9817;50.80926400;5.16316200;2023-08-21T08:34:50;43.30;69.70
19363;DHT22;9817;50.80926400;5.16316200;2023-08-21T08:37:15;43.80;67.90
19363;DHT22;9817;50.80926400;5.16316200;2023-08-21T08:39:41;44.00;65.40
19363;DHT22;9817;50.80926400;5.16316200;2023-08-21T08:42:08;44.20;64.10
19363;DHT22;9817;50.80926400;5.16316200;2023-08-21T08:44:36;44.70;61.90
19363;DHT22;9817;50.80926400;5.16316200;2023-08-21T08:47:03;45.00;60.60
19363;DHT22;9817;50.80926400;5.16316200;2023-08-21T08:49:30;45.30;59.40
19363;DHT22;9817;50.80926400;5.16316200;2023-08-21T08:51:58;45.20;58.60
19363;DHT22;9817;50.80926400;5.16316200;2023-08-21T08:54:24;45.60;58.50
19363;DHT22;9817;50.80926400;5.16316200;2023-08-21T08:56:51;45.80;57.00
19363;DHT22;9817;50.80926400;5.16316200;2023-08-21T08:59:16;45.80;56.00
19363;DHT22;9817;50.80926400;5.16316200;2023-08-21T09:01:42;45.90;55.30
19363;DHT22;9817;50.80926400;5.16316200;2023-08-21T09:04:08;46.10;54.50
19363;DHT22;9817;50.80926400;5.16316200;2023-08-21T09:06:34;46.40;53.50
19363;DHT22;9817;50.80926400;5.16316200;2023-08-21T09:09:00;46.50;53.10
19363;DHT22;9817;50.80926400;5.16316200;2023-08-21T09:11:26;46.70;52.20
19363;DHT22;9817;50.80926400;5.16316200;2023-08-21T09:13:53;46.50;52.10
19363;DHT22;9817;50.80926400;5.16316200;2023-08-21T09:16:19;46.50;52.60
19363;DHT22;9817;50.80926400;5.16316200;2023-08-21T09:18:56;46.10;52.50
19363;DHT22;9817;50.80926400;5.16316200;2023-08-21T09:21:25;45.60;52.10
19363;DHT22;9817;50.80926400;5.16316200;2023-08-21T09:24:02;45.60;51.80
19363;DHT22;9817;50.80926400;5.16316200;2023-08-21T09:26:31;45.50;51.80
19363;DHT22;9817;50.80926400;5.16316200;2023-08-21T09:29:03;45.40;51.90
19363;DHT22;9817;50.80926400;5.16316200;2023-08-21T09:31:31;45.40;52.30
19363;DHT22;9817;50.80926400;5.16316200;2023-08-21T09:34:02;45.40;52.10
19363;DHT22;9817;50.80926400;5.16316200;2023-08-21T09:36:30;45.70;51.70
19363;DHT22;9817;50.80926400;5.16316200;2023-08-21T09:38:56;45.70;51.40
19363;DHT22;9817;50.80926400;5.16316200;2023-08-21T09:41:25;46.00;52.10
19363;DHT22;9817;50.80926400;5.16316200;2023-08-21T09:43:51;46.00;51.60
19363;DHT22;9817;50.80926400;5.16316200;2023-08-21T09:46:23;45.90;51.00
19363;DHT22;9817;50.80926400;5.16316200;2023-08-21T09:48:49;45.50;51.50
19363;DHT22;9817;50.80926400;5.16316200;2023-08-21T09:51:16;45.50;51.80
19363;DHT22;9817;50.80926400;5.16316200;2023-08-21T09:53:42;45.30;52.20
19363;DHT22;9817;50.80926400;5.16316200;2023-08-21T09:56:08;45.40;52.10
19363;DHT22;9817;50.80926400;5.16316200;2023-08-21T09:58:37;45.20;52.00
19363;DHT22;9817;50.80926400;5.16316200;2023-08-21T10:01:07;44.90;52.40
19363;DHT22;9817;50.80926400;5.16316200;2023-08-21T10:03:38;44.80;53.00
19363;DHT22;9817;50.80926400;5.16316200;2023-08-21T10:06:04;44.40;52.70
19363;DHT22;9817;50.80926400;5.16316200;2023-08-21T10:08:31;44.00;52.80
19363;DHT22;9817;50.80926400;5.16316200;2023-08-21T10:11:00;43.60;53.50
19363;DHT22;9817;50.80926400;5.16316200;2023-08-21T10:13:26;42.80;53.40
19363;DHT22;9817;50.80926400;5.16316200;2023-08-21T10:15:52;42.30;55.10
19363;DHT22;9817;50.80926400;5.16316200;2023-08-21T10:18:24;41.60;56.00
19363;DHT22;9817;50.80926400;5.16316200;2023-08-21T10:20:51;40.90;57.70
19363;DHT22;9817;50.80926400;5.16316200;2023-08-21T10:23:27;40.20;57.80
19363;DHT22;9817;50.80926400;5.16316200;2023-08-21T10:25:58;39.30;59.40
19363;DHT22;9817;50.80926400;5.16316200;2023-08-21T10:28:24;38.20;60.00
19363;DHT22;9817;50.80926400;5.16316200;2023-08-21T10:30:50;37.40;61.00
19363;DHT22;9817;50.80926400;5.16316200;2023-08-21T10:33:16;36.60;62.60
19363;DHT22;9817;50.80926400;5.16316200;2023-08-21T10:35:42;36.00;64.50
19363;DHT22;9817;50.80926400;5.16316200;2023-08-21T10:38:12;35.50;66.00
19363;DHT22;9817;50.80926400;5.16316200;2023-08-21T10:40:40;35.10;65.80
19363;DHT22;9817;50.80926400;5.16316200;2023-08-21T10:46:02;34.90;69.90
19363;DHT22;9817;50.80926400;5.16316200;2023-08-21T10:48:28;34.30;69.60
19363;DHT22;9817;50.80926400;5.16316200;2023-08-21T10:50:54;33.50;71.00
19363;DHT22;9817;50.80926400;5.16316200;2023-08-21T10:53:21;33.30;71.60
19363;DHT22;9817;50.80926400;5.16316200;2023-08-21T10:55:54;33.20;72.60
19363;DHT22;9817;50.80926400;5.16316200;2023-08-21T10:58:20;33.10;74.70
19363;DHT22;9817;50.80926400;5.16316200;2023-08-21T11:00:46;32.70;74.20
19363;DHT22;9817;50.80926400;5.16316200;2023-08-21T11:03:11;32.70;76.40
19363;DHT22;9817;50.80926400;5.16316200;2023-08-21T11:05:37;32.70;75.10
19363;DHT22;9817;50.80926400;5.16316200;2023-08-21T11:08:03;32.40;77.20
19363;DHT22;9817;50.80926400;5.16316200;2023-08-21T11:10:31;32.10;77.30
19363;DHT22;9817;50.80926400;5.16316200;2023-08-21T11:12:58;31.70;78.60
19363;DHT22;9817;50.80926400;5.16316200;2023-08-21T11:15:26;31.80;80.90
19363;DHT22;9817;50.80926400;5.16316200;2023-08-21T11:18:02;31.50;82.20
19363;DHT22;9817;50.80926400;5.16316200;2023-08-21T11:20:36;31.30;83.30
19363;DHT22;9817;50.80926400;5.16316200;2023-08-21T11:23:04;31.50;85.50
19363;DHT22;9817;50.80926400;5.16316200;2023-08-21T11:25:33;31.80;85.00
19363;DHT22;9817;50.80926400;5.16316200;2023-08-21T11:28:00;32.10;82.20
19363;DHT22;9817;50.80926400;5.16316200;2023-08-21T11:30:28;32.20;83.40
19363;DHT22;9817;50.80926400;5.16316200;2023-08-21T11:33:13;32.40;82.40
19363;DHT22;9817;50.80926400;5.16316200;2023-08-21T11:35:39;32.20;84.80
19363;DHT22;9817;50.80926400;5.16316200;2023-08-21T11:38:05;32.40;83.90
19363;DHT22;9817;50.80926400;5.16316200;2023-08-21T11:40:34;32.40;80.10
19363;DHT22;9817;50.80926400;5.16316200;2023-08-21T11:43:03;32.30;85.50
19363;DHT22;9817;50.80926400;5.16316200;2023-08-21T11:45:30;32.40;83.30
19363;DHT22;9817;50.80926400;5.16316200;2023-08-21T11:47:56;32.40;84.90
19363;DHT22;9817;50.80926400;5.16316200;2023-08-21T11:50:22;32.00;85.80
19363;DHT22;9817;50.80926400;5.16316200;2023-08-21T11:52:52;31.80;86.00
19363;DHT22;9817;50.80926400;5.16316200;2023-08-21T11:55:17;31.70;85.00
19363;DHT22;9817;50.80926400;5.16316200;2023-08-21T11:57:50;31.20;84.80
19363;DHT22;9817;50.80926400;5.16316200;2023-08-21T12:00:17;31.40;85.50
19363;DHT22;9817;50.80926400;5.16316200;2023-08-21T12:02:55;31.00;88.30
19363;DHT22;9817;50.80926400;5.16316200;2023-08-21T12:05:24;30.90;90.70
19363;DHT22;9817;50.80926400;5.16316200;2023-08-21T12:07:50;31.00;90.90
19363;DHT22;9817;50.80926400;5.16316200;2023-08-21T12:10:23;31.50;91.80
19363;DHT22;9817;50.80926400;5.16316200;2023-08-21T12:12:48;31.70;90.60
19363;DHT22;9817;50.80926400;5.16316200;2023-08-21T12:15:14;31.80;91.20
19363;DHT22;9817;50.80926400;5.16316200;2023-08-21T12:17:39;32.00;89.10
19363;DHT22;9817;50.80926400;5.16316200;2023-08-21T12:20:06;31.80;90.90
19363;DHT22;9817;50.80926400;5.16316200;2023-08-21T12:22:37;31.50;92.20
19363;DHT22;9817;50.80926400;5.16316200;2023-08-21T12:25:03;31.40;93.50
19363;DHT22;9817;50.80926400;5.16316200;2023-08-21T12:27:30;31.40;93.10
19363;DHT22;9817;50.80926400;5.16316200;2023-08-21T12:29:55;31.60;92.70
19363;DHT22;9817;50.80926400;5.16316200;2023-08-21T12:32:21;31.80;93.00
19363;DHT22;9817;50.80926400;5.16316200;2023-08-21T12:34:47;31.70;91.20
19363;DHT22;9817;50.80926400;5.16316200;2023-08-21T12:37:13;31.20;90.90
19363;DHT22;9817;50.80926400;5.16316200;2023-08-21T12:39:39;31.00;91.40
19363;DHT22;9817;50.80926400;5.16316200;2023-08-21T12:42:05;31.00;92.00
19363;DHT22;9817;50.80926400;5.16316200;2023-08-21T12:44:30;30.90;93.10
19363;DHT22;9817;50.80926400;5.16316200;2023-08-21T12:46:56;30.70;94.90
19363;DHT22;9817;50.80926400;5.16316200;2023-08-21T12:49:22;30.40;94.70
19363;DHT22;9817;50.80926400;5.16316200;2023-08-21T12:51:48;30.40;93.20
19363;DHT22;9817;50.80926400;5.16316200;2023-08-21T12:54:13;30.50;95.00
19363;DHT22;9817;50.80926400;5.16316200;2023-08-21T12:56:39;30.50;94.10
19363;DHT22;9817;50.80926400;5.16316200;2023-08-21T12:59:05;30.70;95.30
19363;DHT22;9817;50.80926400;5.16316200;2023-08-21T13:01:31;30.80;94.10
19363;DHT22;9817;50.80926400;5.16316200;2023-08-21T13:04:02;30.70;94.20
19363;DHT22;9817;50.80926400;5.16316200;2023-08-21T13:06:28;30.80;93.30
19363;DHT22;9817;50.80926400;5.16316200;2023-08-21T13:08:54;30.90;94.10
19363;DHT22;9817;50.80926400;5.16316200;2023-08-21T13:11:19;30.80;93.90
19363;DHT22;9817;50.80926400;5.16316200;2023-08-21T13:13:45;30.60;93.20
19363;DHT22;9817;50.80926400;5.16316200;2023-08-21T13:16:11;30.80;94.70
19363;DHT22;9817;50.80926400;5.16316200;2023-08-21T13:18:36;31.00;93.70
19363;DHT22;9817;50.80926400;5.16316200;2023-08-21T13:21:03;31.00;93.50
19363;DHT22;9817;50.80926400;5.16316200;2023-08-21T13:23:29;31.10;94.30
19363;DHT22;9817;50.80926400;5.16316200;2023-08-21T13:25:55;31.20;93.90
19363;DHT22;9817;50.80926400;5.16316200;2023-08-21T13:28:23;31.20;93.20
19363;DHT22;9817;50.80926400;5.16316200;2023-08-21T13:30:48;31.20;94.60
19363;DHT22;9817;50.80926400;5.16316200;2023-08-21T13:33:15;31.20;95.20
19363;DHT22;9817;50.80926400;5.16316200;2023-08-21T13:35:44;31.30;95.00
19363;DHT22;9817;50.80926400;5.16316200;2023-08-21T13:38:09;31.50;95.40